createdAt,value
2022-11-29T00:01:42.234Z,80.75
2022-11-29T00:04:08.743Z,80.72
2022-11-29T00:06:35.528Z,81.08
2022-11-29T00:09:03.585Z,80.90
2022-11-29T00:11:51.257Z,80.68
2022-11-29T00:14:18.583Z,81.26
2022-11-29T00:16:45.097Z,80.63
2022-11-29T00:19:12.284Z,81.03
2022-11-29T00:21:39.022Z,81.03
2022-11-29T00:24:05.778Z,81.02
2022-11-29T00:26:32.163Z,81.10
2022-11-29T00:28:58.853Z,80.65
2022-11-29T00:31:27.949Z,80.76
2022-11-29T00:33:54.464Z,80.96
2022-11-29T00:36:20.848Z,80.88
2022-11-29T00:38:47.322Z,80.87
2022-11-29T00:41:13.780Z,80.84
2022-11-29T00:43:40.291Z,80.29
2022-11-29T00:46:07.215Z,81.50
2022-11-29T00:48:33.999Z,81.05
2022-11-29T00:51:00.893Z,81.92
2022-11-29T00:53:27.620Z,81.55
2022-11-29T00:55:54.396Z,81.74
2022-11-29T00:58:21.159Z,81.50
2022-11-29T01:00:48.096Z,82.12
2022-11-29T01:03:15.346Z,82.04
2022-11-29T01:05:42.910Z,82.14
2022-11-29T01:08:09.599Z,81.58
2022-11-29T01:10:35.971Z,82.30
2022-11-29T01:13:03.031Z,82.18
2022-11-29T01:15:29.493Z,81.81
2022-11-29T01:17:55.940Z,81.89
2022-11-29T01:20:22.343Z,82.51
2022-11-29T01:22:48.747Z,81.59
2022-11-29T01:25:15.480Z,81.89
2022-11-29T01:27:42.086Z,81.94
2022-11-29T01:30:09.093Z,82.08
2022-11-29T01:32:37.693Z,81.59
2022-11-29T01:35:04.956Z,81.90
2022-11-29T01:37:31.782Z,82.02
2022-11-29T01:39:58.238Z,82.26
2022-11-29T01:42:24.695Z,82.07
2022-11-29T01:45:05.588Z,82.04
2022-11-29T01:47:32.309Z,82.03
2022-11-29T01:49:59.693Z,81.85
2022-11-29T01:52:28.387Z,82.74
2022-11-29T01:54:56.652Z,82.11
2022-11-29T01:57:23.505Z,82.34
2022-11-29T01:59:51.754Z,82.88
2022-11-29T02:02:40.649Z,82.58
2022-11-29T02:05:07.945Z,82.77
2022-11-29T02:07:34.614Z,82.18
2022-11-29T02:10:02.340Z,82.66
2022-11-29T02:12:37.748Z,82.83
2022-11-29T02:15:23.415Z,82.08
2022-11-29T02:18:11.610Z,82.96
2022-11-29T02:21:00.127Z,83.32
2022-11-29T02:23:30.160Z,82.56
2022-11-29T02:25:59.654Z,83.11
2022-11-29T02:28:44.960Z,82.81
2022-11-29T02:31:23.551Z,82.89
2022-11-29T02:34:02.498Z,82.93
2022-11-29T02:36:47.921Z,83.22
2022-11-29T02:39:23.501Z,82.90
2022-11-29T02:42:02.644Z,82.85
2022-11-29T02:44:41.798Z,82.99
2022-11-29T02:47:08.815Z,83.18
2022-11-29T02:49:38.434Z,83.39
2022-11-29T02:52:04.929Z,83.03
2022-11-29T02:54:37.595Z,83.42
2022-11-29T02:57:16.094Z,83.59
2022-11-29T02:59:55.203Z,83.51
2022-11-29T03:02:34.024Z,83.38
2022-11-29T03:05:16.681Z,83.13
2022-11-29T03:07:48.772Z,83.51
2022-11-29T03:10:35.611Z,83.33
2022-11-29T03:13:03.880Z,83.29
2022-11-29T03:15:44.797Z,83.62
2022-11-29T03:18:32.820Z,82.99
2022-11-29T03:21:08.414Z,83.33
2022-11-29T03:23:42.578Z,83.87
2022-11-29T03:26:19.043Z,83.85
2022-11-29T03:28:54.620Z,83.57
2022-11-29T03:31:28.696Z,83.07
2022-11-29T03:34:01.012Z,83.63
2022-11-29T03:36:40.830Z,83.26
2022-11-29T03:39:11.060Z,84.01
2022-11-29T03:41:45.423Z,83.07
2022-11-29T03:44:20.033Z,83.55
2022-11-29T03:46:55.302Z,83.51
2022-11-29T03:49:38.003Z,83.40
2022-11-29T03:52:13.823Z,83.11
2022-11-29T03:54:55.696Z,83.69
2022-11-29T03:57:25.664Z,83.32
2022-11-29T03:59:58.911Z,83.33
2022-11-29T04:02:40.602Z,83.45
2022-11-29T04:05:19.287Z,83.60
2022-11-29T04:07:45.782Z,83.30
2022-11-29T04:10:21.494Z,83.77
2022-11-29T04:13:03.783Z,82.76
2022-11-29T04:15:30.154Z,83.36
2022-11-29T04:18:15.206Z,84.01
2022-11-29T04:20:48.205Z,83.77
2022-11-29T04:23:33.350Z,83.43
2022-11-29T04:26:18.643Z,83.93
2022-11-29T04:29:08.269Z,83.29
2022-11-29T04:31:57.726Z,83.87
2022-11-29T04:34:34.645Z,83.86
2022-11-29T04:37:19.902Z,83.51
2022-11-29T04:40:03.202Z,83.56
2022-11-29T04:42:48.385Z,83.86
2022-11-29T04:45:20.984Z,83.32
2022-11-29T04:48:10.407Z,84.30
2022-11-29T04:50:48.730Z,84.38
2022-11-29T04:53:28.742Z,83.51
2022-11-29T04:56:14.182Z,84.43
2022-11-29T04:59:05.103Z,83.57
2022-11-29T05:01:34.523Z,84.09
2022-11-29T05:04:14.455Z,84.13
2022-11-29T05:06:47.995Z,84.21
2022-11-29T05:09:23.350Z,83.65
2022-11-29T05:11:49.765Z,84.17
2022-11-29T05:14:25.050Z,84.13
2022-11-29T05:16:51.431Z,83.95
2022-11-29T05:19:36.799Z,83.98
2022-11-29T05:22:03.187Z,84.34
2022-11-29T05:24:45.219Z,83.71
2022-11-29T05:27:20.966Z,84.13
2022-11-29T05:29:56.626Z,83.56
2022-11-29T05:32:42.035Z,84.07
2022-11-29T05:35:28.479Z,84.26
2022-11-29T05:37:59.051Z,83.99
2022-11-29T05:40:34.323Z,84.22
2022-11-29T05:43:19.831Z,84.01
2022-11-29T05:45:52.823Z,83.55
2022-11-29T05:48:45.212Z,84.16
2022-11-29T05:51:30.497Z,84.29
2022-11-29T05:54:00.124Z,84.07
2022-11-29T05:56:26.853Z,84.22
2022-11-29T05:58:59.801Z,84.31
2022-11-29T06:01:29.262Z,84.58
2022-11-29T06:04:02.485Z,84.45
2022-11-29T06:06:50.448Z,84.18
2022-11-29T06:09:40.547Z,84.09
2022-11-29T06:12:16.994Z,84.98
2022-11-29T06:14:57.134Z,84.54
2022-11-29T06:17:38.622Z,84.32
2022-11-29T06:20:13.062Z,84.58
2022-11-29T06:22:39.456Z,84.45
2022-11-29T06:25:24.815Z,83.99
2022-11-29T06:28:15.441Z,84.82
2022-11-29T06:30:41.886Z,84.75
2022-11-29T06:33:22.060Z,85.38
2022-11-29T06:35:53.205Z,84.49
2022-11-29T06:38:24.546Z,84.79
2022-11-29T06:40:51.487Z,85.34
2022-11-29T06:43:18.009Z,84.64
2022-11-29T06:46:04.715Z,85.06
2022-11-29T06:48:38.371Z,85.30
2022-11-29T06:51:13.669Z,85.07
2022-11-29T06:53:47.403Z,84.87
2022-11-29T06:56:16.695Z,84.81
2022-11-29T06:58:52.378Z,84.76
2022-11-29T07:01:39.909Z,84.84
2022-11-29T07:04:06.337Z,84.52
2022-11-29T07:06:34.231Z,84.98
2022-11-29T07:09:01.732Z,84.84
2022-11-29T07:11:28.409Z,84.36
2022-11-29T07:13:54.950Z,84.91
2022-11-29T07:16:27.165Z,84.34
2022-11-29T07:19:11.686Z,84.69
2022-11-29T07:22:01.436Z,84.70
2022-11-29T07:24:37.107Z,84.33
2022-11-29T07:27:06.512Z,84.23
2022-11-29T07:29:51.957Z,83.92
2022-11-29T07:32:37.254Z,83.43
2022-11-29T07:35:08.208Z,83.42
2022-11-29T07:37:46.775Z,84.20
2022-11-29T07:40:20.693Z,84.04
2022-11-29T07:43:05.574Z,83.95
2022-11-29T07:45:34.501Z,84.15
2022-11-29T07:48:00.911Z,83.41
2022-11-29T07:50:28.388Z,84.28
2022-11-29T07:52:55.734Z,84.06
2022-11-29T07:55:23.338Z,83.87
2022-11-29T07:57:50.351Z,84.09
2022-11-29T08:00:17.413Z,83.26
2022-11-29T08:02:43.927Z,83.60
2022-11-29T08:05:10.525Z,84.59
2022-11-29T08:07:38.050Z,84.19
2022-11-29T08:10:06.345Z,83.60
2022-11-29T08:12:32.957Z,83.91
2022-11-29T08:14:59.734Z,83.78
2022-11-29T08:17:26.245Z,84.22
2022-11-29T08:19:52.809Z,84.31
2022-11-29T08:22:19.416Z,83.96
2022-11-29T08:24:46.005Z,83.34
2022-11-29T08:27:12.703Z,82.90
2022-11-29T08:29:42.201Z,84.26
2022-11-29T08:32:09.104Z,83.76
2022-11-29T08:34:35.640Z,83.17
2022-11-29T08:37:02.111Z,83.32
2022-11-29T08:39:28.779Z,82.95
2022-11-29T08:41:55.250Z,84.08
2022-11-29T08:44:23.071Z,82.93
2022-11-29T08:47:08.231Z,83.48
2022-11-29T08:49:34.647Z,83.75
2022-11-29T08:52:19.718Z,83.72
2022-11-29T08:54:46.274Z,82.81
2022-11-29T08:59:59.216Z,82.55
2022-11-29T09:02:25.706Z,83.31
2022-11-29T09:04:52.155Z,82.74
2022-11-29T09:07:20.494Z,82.82
2022-11-29T09:09:46.913Z,83.68
2022-11-29T09:12:13.311Z,83.39
2022-11-29T09:14:39.687Z,83.84
2022-11-29T09:17:08.383Z,83.85
2022-11-29T09:19:34.836Z,82.91
2022-11-29T09:22:01.327Z,81.74
2022-11-29T09:24:28.007Z,81.78
2022-11-29T09:26:54.478Z,82.78
2022-11-29T09:29:20.898Z,82.44
2022-11-29T09:31:47.489Z,81.77
2022-11-29T09:34:14.756Z,82.05
2022-11-29T09:36:42.981Z,82.54
2022-11-29T09:39:09.918Z,82.25
2022-11-29T09:41:42.982Z,81.71
2022-11-29T09:44:18.225Z,82.22
2022-11-29T09:46:48.081Z,81.17
2022-11-29T09:49:26.601Z,81.12
2022-11-29T09:52:04.040Z,82.10
2022-11-29T09:54:49.739Z,81.71
2022-11-29T09:57:17.542Z,81.38
2022-11-29T09:59:47.221Z,81.64
2022-11-29T10:02:24.719Z,81.20
2022-11-29T10:04:57.003Z,80.58
2022-11-29T10:07:32.771Z,81.53
2022-11-29T10:10:03.084Z,80.99
2022-11-29T10:12:37.016Z,81.41
2022-11-29T10:15:11.125Z,80.62
2022-11-29T10:17:43.580Z,80.57
2022-11-29T10:20:12.995Z,80.66
2022-11-29T10:22:39.464Z,81.40
2022-11-29T10:25:06.782Z,80.61
2022-11-29T10:27:34.391Z,81.15
2022-11-29T10:30:02.802Z,81.25
2022-11-29T10:32:32.032Z,80.91
2022-11-29T10:35:00.845Z,81.27
2022-11-29T10:37:32.534Z,81.47
2022-11-29T10:40:08.095Z,80.59
2022-11-29T10:42:49.963Z,80.70
2022-11-29T10:45:19.423Z,81.08
2022-11-29T10:47:47.010Z,80.93
2022-11-29T10:50:17.270Z,80.69
2022-11-29T10:52:43.777Z,80.19
2022-11-29T10:55:13.556Z,80.72
2022-11-29T10:57:59.997Z,80.57
2022-11-29T11:00:26.795Z,80.81
2022-11-29T11:02:53.195Z,80.55
2022-11-29T11:05:26.339Z,80.88
2022-11-29T11:07:57.200Z,79.93
2022-11-29T11:10:27.099Z,80.56
2022-11-29T11:13:04.603Z,80.58
2022-11-29T11:15:34.316Z,80.48
2022-11-29T11:18:04.668Z,80.77
2022-11-29T11:20:35.766Z,79.96
2022-11-29T11:23:03.806Z,80.80
2022-11-29T11:25:33.465Z,80.21
2022-11-29T11:28:12.075Z,80.63
2022-11-29T11:30:38.665Z,80.79
2022-11-29T11:33:08.199Z,80.75
2022-11-29T11:35:34.897Z,80.41
2022-11-29T11:38:01.329Z,81.21
2022-11-29T11:40:29.662Z,80.48
2022-11-29T11:43:02.195Z,79.95
2022-11-29T11:45:36.423Z,80.04
2022-11-29T11:48:04.968Z,79.67
2022-11-29T11:50:54.559Z,79.38
2022-11-29T11:53:21.009Z,79.75
2022-11-29T11:55:56.488Z,80.06
2022-11-29T11:58:24.043Z,79.30
2022-11-29T12:01:10.383Z,79.93
2022-11-29T12:03:45.820Z,80.03
2022-11-29T12:06:32.488Z,79.56
2022-11-29T12:09:08.318Z,79.53
2022-11-29T12:12:00.425Z,79.40
2022-11-29T12:14:39.257Z,79.18
2022-11-29T12:17:16.830Z,79.53
2022-11-29T12:19:58.869Z,79.37
2022-11-29T12:22:30.706Z,78.51
2022-11-29T12:24:59.895Z,78.92
2022-11-29T12:27:26.407Z,79.54
2022-11-29T12:29:52.883Z,79.52
2022-11-29T12:32:19.246Z,79.32
2022-11-29T12:35:19.186Z,78.77
2022-11-29T12:37:59.734Z,78.73
2022-11-29T12:40:53.820Z,79.40
2022-11-29T12:43:39.047Z,79.11
2022-11-29T12:46:05.514Z,78.91
2022-11-29T12:48:53.008Z,79.86
2022-11-29T12:51:19.467Z,79.52
2022-11-29T12:53:58.114Z,79.41
2022-11-29T12:56:24.581Z,79.28
2022-11-29T12:59:10.031Z,79.39
2022-11-29T13:01:45.682Z,79.38
2022-11-29T13:04:21.045Z,79.44
2022-11-29T13:06:53.742Z,79.82
2022-11-29T13:09:40.226Z,79.61
2022-11-29T13:12:13.153Z,78.75
2022-11-29T13:14:45.415Z,79.60
2022-11-29T13:17:24.864Z,79.71
2022-11-29T13:19:55.384Z,79.37
2022-11-29T13:22:44.936Z,79.35
2022-11-29T13:25:21.204Z,79.26
2022-11-29T13:27:56.807Z,79.52
2022-11-29T13:30:23.310Z,79.50
2022-11-29T13:32:55.848Z,79.13
2022-11-29T13:35:22.343Z,79.56
2022-11-29T13:37:55.347Z,79.16
2022-11-29T13:40:39.968Z,79.54
2022-11-29T13:43:10.683Z,79.45
2022-11-29T13:45:42.087Z,79.68
2022-11-29T13:48:41.052Z,79.58
2022-11-29T13:51:26.477Z,80.30
2022-11-29T13:53:54.091Z,79.80
2022-11-29T13:56:36.091Z,80.17
2022-11-29T13:59:07.005Z,79.96
2022-11-29T14:01:54.024Z,79.95
2022-11-29T14:04:26.758Z,80.14
2022-11-29T14:07:13.576Z,79.96
2022-11-29T14:10:01.133Z,80.55
2022-11-29T14:12:38.158Z,80.08
2022-11-29T14:15:14.868Z,80.46
2022-11-29T14:17:47.483Z,80.57
2022-11-29T14:20:23.089Z,80.24
2022-11-29T14:23:04.839Z,80.27
2022-11-29T14:25:51.225Z,80.46
2022-11-29T14:28:21.459Z,80.16
2022-11-29T14:30:52.229Z,81.08
2022-11-29T14:33:34.079Z,80.63
2022-11-29T14:36:00.574Z,80.81
2022-11-29T14:38:37.900Z,80.22
2022-11-29T14:41:19.198Z,80.94
2022-11-29T14:43:45.771Z,80.74
2022-11-29T14:46:15.295Z,80.88
2022-11-29T14:49:02.558Z,80.78
2022-11-29T14:51:30.743Z,80.94
2022-11-29T14:54:13.387Z,80.89
2022-11-29T14:56:44.451Z,80.82
2022-11-29T14:59:29.405Z,81.30
2022-11-29T15:01:55.983Z,81.03
2022-11-29T15:04:25.640Z,81.10
2022-11-29T15:06:55.586Z,81.27
2022-11-29T15:09:22.813Z,81.65
2022-11-29T15:12:10.108Z,81.78
2022-11-29T15:14:36.634Z,81.78
2022-11-29T15:17:21.924Z,81.92
2022-11-29T15:20:08.820Z,82.05
2022-11-29T15:22:47.958Z,82.15
2022-11-29T15:25:16.648Z,82.63
2022-11-29T15:27:49.708Z,82.59
2022-11-29T15:30:35.241Z,82.38
2022-11-29T15:33:06.400Z,82.54
2022-11-29T15:35:34.346Z,82.12
2022-11-29T15:38:01.178Z,82.88
2022-11-29T15:40:35.168Z,82.41
2022-11-29T15:43:17.814Z,82.30
2022-11-29T15:45:51.631Z,82.26
2022-11-29T15:48:21.219Z,82.96
2022-11-29T15:51:06.800Z,82.75
2022-11-29T15:53:36.309Z,83.06
2022-11-29T15:56:05.640Z,82.70
2022-11-29T15:58:33.594Z,83.17
2022-11-29T16:01:00.662Z,83.40
2022-11-29T16:03:32.636Z,83.01
2022-11-29T16:06:05.638Z,82.61
2022-11-29T16:08:40.454Z,83.10
2022-11-29T16:11:07.306Z,83.29
2022-11-29T16:13:41.148Z,83.20
2022-11-29T16:16:13.228Z,83.47
2022-11-29T16:18:40.986Z,82.72
2022-11-29T16:21:10.854Z,82.58
2022-11-29T16:23:41.283Z,83.02
2022-11-29T16:26:13.718Z,83.15
2022-11-29T16:28:44.856Z,83.52
2022-11-29T16:31:18.682Z,83.07
2022-11-29T16:33:47.487Z,82.31
2022-11-29T16:36:16.525Z,82.41
2022-11-29T16:38:51.745Z,82.73
2022-11-29T16:41:24.564Z,82.57
2022-11-29T16:43:55.429Z,82.97
2022-11-29T16:46:21.928Z,83.67
2022-11-29T16:48:54.883Z,83.53
2022-11-29T16:51:24.296Z,83.97
2022-11-29T16:53:51.834Z,84.07
2022-11-29T16:56:23.381Z,83.31
2022-11-29T16:59:17.129Z,83.35
2022-11-29T17:01:41.319Z,82.63
2022-11-29T17:04:08.743Z,83.11
2022-11-29T17:06:35.271Z,83.04
2022-11-29T17:09:01.727Z,83.31
2022-11-29T17:11:28.188Z,83.06
2022-11-29T17:13:54.685Z,83.56
2022-11-29T17:16:22.526Z,83.45
2022-11-29T17:18:49.043Z,83.59
2022-11-29T17:21:22.877Z,83.37
2022-11-29T17:23:49.567Z,83.28
2022-11-29T17:26:16.418Z,82.99
2022-11-29T17:28:44.353Z,83.62
2022-11-29T17:31:11.914Z,83.43
2022-11-29T17:33:38.379Z,84.16
2022-11-29T17:36:08.579Z,84.21
2022-11-29T17:38:35.538Z,84.65
2022-11-29T17:41:12.265Z,84.66
2022-11-29T17:43:42.132Z,84.21
2022-11-29T17:46:12.896Z,84.69
2022-11-29T17:48:39.413Z,84.48
2022-11-29T17:51:17.238Z,84.34
2022-11-29T17:53:54.923Z,84.35
2022-11-29T17:56:22.966Z,84.38
2022-11-29T17:58:56.799Z,85.05
2022-11-29T18:01:24.502Z,84.36
2022-11-29T18:03:53.373Z,84.19
2022-11-29T18:06:21.237Z,84.14
2022-11-29T18:08:49.295Z,83.99
2022-11-29T18:11:15.855Z,84.40
2022-11-29T18:13:42.318Z,84.33
2022-11-29T18:16:10.398Z,84.28
2022-11-29T18:18:37.416Z,83.94
2022-11-29T18:21:05.683Z,83.75
2022-11-29T18:23:32.919Z,84.17
2022-11-29T18:26:00.355Z,83.71
2022-11-29T18:28:28.500Z,84.82
2022-11-29T18:30:56.358Z,84.45
2022-11-29T18:33:23.748Z,83.87
2022-11-29T18:35:50.169Z,85.00
2022-11-29T18:38:16.984Z,84.93
2022-11-29T18:40:45.640Z,85.14
2022-11-29T18:43:12.812Z,84.00
2022-11-29T18:45:39.483Z,83.87
2022-11-29T18:48:05.986Z,84.49
2022-11-29T18:50:32.948Z,83.70
2022-11-29T18:52:59.537Z,83.88
2022-11-29T18:55:26.888Z,84.13
2022-11-29T18:57:53.947Z,83.22
2022-11-29T19:00:20.524Z,83.37
2022-11-29T19:02:47.078Z,83.15
2022-11-29T19:05:13.552Z,83.27
2022-11-29T19:07:40.033Z,83.27
2022-11-29T19:10:07.095Z,83.39
2022-11-29T19:12:33.505Z,83.79
2022-11-29T19:15:00.125Z,82.60
2022-11-29T19:17:27.491Z,83.27
2022-11-29T19:19:54.279Z,83.96
2022-11-29T19:22:20.694Z,83.49
2022-11-29T19:24:47.260Z,83.47
2022-11-29T19:27:13.814Z,83.26
2022-11-29T19:29:40.215Z,83.45
2022-11-29T19:32:08.437Z,83.06
2022-11-29T19:34:34.869Z,83.55
2022-11-29T19:37:01.449Z,83.86
2022-11-29T19:39:29.320Z,83.97
2022-11-29T19:41:55.714Z,83.67
2022-11-29T19:44:26.577Z,83.75
2022-11-29T19:46:56.277Z,83.04
2022-11-29T19:49:22.711Z,82.83
2022-11-29T19:51:49.103Z,82.50
2022-11-29T19:54:15.543Z,83.30
2022-11-29T19:56:42.140Z,83.74
2022-11-29T19:59:08.786Z,83.43
2022-11-29T20:01:43.806Z,83.22
2022-11-29T20:04:11.588Z,83.47
2022-11-29T20:06:38.133Z,83.45
2022-11-29T20:09:04.638Z,84.38
2022-11-29T20:11:31.021Z,84.46
2022-11-29T20:13:58.680Z,84.91
2022-11-29T20:16:25.850Z,84.25
2022-11-29T20:18:53.083Z,84.63
2022-11-29T20:21:19.496Z,84.34
2022-11-29T20:23:48.637Z,83.83
2022-11-29T20:26:17.147Z,84.11
2022-11-29T20:28:43.963Z,83.41
2022-11-29T20:31:13.001Z,83.45
2022-11-29T20:33:40.303Z,83.05
2022-11-29T20:36:06.757Z,84.09
2022-11-29T20:38:42.462Z,83.50
2022-11-29T20:41:14.728Z,83.84
2022-11-29T20:43:47.632Z,83.22
2022-11-29T20:46:14.217Z,83.45
2022-11-29T20:48:40.750Z,83.58
2022-11-29T20:51:07.446Z,84.37
2022-11-29T20:53:35.112Z,83.39
2022-11-29T20:56:02.954Z,84.16
2022-11-29T20:58:29.482Z,84.01
2022-11-29T21:00:56.040Z,84.13
2022-11-29T21:03:23.515Z,83.45
2022-11-29T21:05:50.458Z,84.24
2022-11-29T21:08:17.747Z,84.60
2022-11-29T21:10:45.396Z,83.85
2022-11-29T21:13:12.600Z,84.38
2022-11-29T21:15:39.484Z,83.68
2022-11-29T21:18:06.299Z,83.64
2022-11-29T21:20:33.068Z,82.70
2022-11-29T21:23:02.510Z,83.22
2022-11-29T21:25:47.389Z,82.26
2022-11-29T21:28:15.309Z,82.58
2022-11-29T21:30:42.309Z,82.82
2022-11-29T21:33:09.563Z,82.36
2022-11-29T21:35:39.889Z,82.90
2022-11-29T21:38:09.882Z,82.78
2022-11-29T21:40:36.294Z,81.81
2022-11-29T21:43:02.987Z,82.71
2022-11-29T21:45:29.417Z,82.28
2022-11-29T21:47:59.227Z,82.16
2022-11-29T21:50:25.648Z,82.86
2022-11-29T21:52:52.494Z,82.38
2022-11-29T21:55:18.915Z,81.84
2022-11-29T21:57:45.620Z,81.73
2022-11-29T22:00:12.271Z,82.15
2022-11-29T22:02:38.804Z,82.01
2022-11-29T22:05:07.320Z,82.21
2022-11-29T22:07:33.834Z,81.96
2022-11-29T22:10:10.005Z,83.17
2022-11-29T22:12:40.888Z,81.74
2022-11-29T22:15:13.921Z,82.80
2022-11-29T22:17:40.402Z,82.39
2022-11-29T22:20:07.164Z,82.23
2022-11-29T22:22:33.577Z,81.50
2022-11-29T22:25:00.009Z,82.48
2022-11-29T22:27:26.402Z,81.25
2022-11-29T22:29:52.881Z,82.44
2022-11-29T22:32:19.311Z,82.17
2022-11-29T22:34:45.995Z,82.57
2022-11-29T22:37:12.647Z,81.63
2022-11-29T22:39:39.054Z,82.82
2022-11-29T22:42:06.800Z,82.42
2022-11-29T22:44:33.214Z,82.46
2022-11-29T22:46:59.700Z,82.92
2022-11-29T22:49:26.138Z,82.67
2022-11-29T22:51:52.602Z,81.68
2022-11-29T22:54:20.207Z,82.31
2022-11-29T22:56:46.852Z,81.54
2022-11-29T22:59:13.602Z,82.69
2022-11-29T23:01:40.902Z,82.74
2022-11-29T23:04:08.986Z,82.79
2022-11-29T23:06:38.688Z,82.49
2022-11-29T23:09:06.700Z,82.37
2022-11-29T23:11:33.150Z,81.61
2022-11-29T23:13:59.972Z,81.55
2022-11-29T23:16:27.705Z,82.35
2022-11-29T23:18:55.122Z,82.24
2022-11-29T23:21:23.392Z,82.41
2022-11-29T23:23:55.841Z,82.85
2022-11-29T23:26:26.932Z,81.62
2022-11-29T23:28:53.844Z,82.44
2022-11-29T23:31:20.811Z,82.42
2022-11-29T23:33:47.572Z,81.77
2022-11-29T23:36:14.468Z,81.94
2022-11-29T23:38:40.980Z,81.52
2022-11-29T23:41:07.631Z,81.73
2022-11-29T23:43:35.393Z,82.45
2022-11-29T23:46:05.838Z,82.52
2022-11-29T23:48:32.286Z,82.16
2022-11-29T23:50:58.737Z,82.22
2022-11-29T23:53:25.337Z,82.17
2022-11-29T23:56:08.621Z,82.68
2022-11-29T23:58:35.148Z,82.27
